JA145P RJEC-RJSF
Flight info
| Callsign | JA145P |
|---|---|
| Flight time | 1h 11m |
| Altitude | 38000 |
| Route | KAGRA Y103 TOBBY Y10 HPE V33 SDE V22 HERON |
| Aircraft | E55P/M-SBDFGHJ2RWY/LB2 |
Departure
| Time | 2026-04-19 07:13 |
|---|---|
| Airport | Asahikawa Airport (RJEC) |
Arrival
| Time | 2026-04-19 08:24 |
|---|---|
| Airport | Fukushima Airport (RJSF) |
| Time | Latitude | Longitude | Altitude | Speed | Heading |
|---|---|---|---|---|---|
| 2026-04-19 07:05 | 43.67076 | 142.45309 | 692 ft | 0 kts | 62° |
| 2026-04-19 07:07 | 43.67077 | 142.45317 | 692 ft | 2 kts | 94° |
| 2026-04-19 07:08 | 43.67055 | 142.45303 | 692 ft | 7 kts | 246° |
| 2026-04-19 07:08 | 43.67020 | 142.45224 | 692 ft | 9 kts | 203° |
| 2026-04-19 07:08 | 43.66955 | 142.45252 | 692 ft | 11 kts | 175° |
| 2026-04-19 07:08 | 43.66894 | 142.45195 | 692 ft | 11 kts | 232° |
| 2026-04-19 07:09 | 43.66824 | 142.45175 | 692 ft | 12 kts | 154° |
| 2026-04-19 07:09 | 43.66734 | 142.45235 | 692 ft | 17 kts | 154° |
| 2026-04-19 07:09 | 43.66604 | 142.45322 | 692 ft | 23 kts | 154° |
| 2026-04-19 07:09 | 43.66444 | 142.45428 | 692 ft | 25 kts | 153° |
| 2026-04-19 07:10 | 43.66289 | 142.45531 | 692 ft | 24 kts | 153° |
| 2026-04-19 07:10 | 43.66168 | 142.45602 | 692 ft | 13 kts | 179° |
| 2026-04-19 07:10 | 43.66110 | 142.45537 | 692 ft | 9 kts | 243° |
| 2026-04-19 07:10 | 43.66103 | 142.45519 | 692 ft | 0 kts | 243° |
| 2026-04-19 07:12 | 43.66099 | 142.45506 | 692 ft | 5 kts | 244° |
| 2026-04-19 07:12 | 43.66080 | 142.45427 | 692 ft | 8 kts | 286° |
| 2026-04-19 07:12 | 43.66103 | 142.45403 | 692 ft | 8 kts | 335° |
| 2026-04-19 07:12 | 43.66418 | 142.45193 | 692 ft | 91 kts | 334° |
| 2026-04-19 07:13 | 43.67202 | 142.44661 | 773 ft | 152 kts | 332° |
| 2026-04-19 07:13 | 43.68233 | 142.44057 | 1461 ft | 171 kts | 333° |
| 2026-04-19 07:13 | 43.69303 | 142.43259 | 2134 ft | 181 kts | 328° |
| 2026-04-19 07:13 | 43.70431 | 142.42557 | 2870 ft | 188 kts | 351° |
| 2026-04-19 07:14 | 43.71683 | 142.43086 | 3619 ft | 202 kts | 37° |
| 2026-04-19 07:14 | 43.72348 | 142.44807 | 4366 ft | 213 kts | 82° |
| 2026-04-19 07:14 | 43.72024 | 142.46968 | 4693 ft | 257 kts | 123° |
| 2026-04-19 07:14 | 43.70680 | 142.48523 | 5388 ft | 260 kts | 160° |
| 2026-04-19 07:15 | 43.68916 | 142.48657 | 6172 ft | 256 kts | 198° |
| 2026-04-19 07:15 | 43.67503 | 142.47348 | 6963 ft | 250 kts | 234° |
| 2026-04-19 07:15 | 43.66013 | 142.43045 | 8547 ft | 254 kts | 246° |
| 2026-04-19 07:16 | 43.65308 | 142.40894 | 9301 ft | 257 kts | 246° |
| 2026-04-19 07:16 | 43.64549 | 142.38583 | 10088 ft | 260 kts | 246° |
| 2026-04-19 07:16 | 43.63807 | 142.36328 | 10833 ft | 263 kts | 246° |
| 2026-04-19 07:16 | 43.63055 | 142.34047 | 11564 ft | 266 kts | 246° |
| 2026-04-19 07:17 | 43.62296 | 142.31746 | 12282 ft | 269 kts | 246° |
| 2026-04-19 07:17 | 43.61527 | 142.29423 | 13028 ft | 270 kts | 246° |
| 2026-04-19 07:17 | 43.60851 | 142.27380 | 13662 ft | 272 kts | 246° |
| 2026-04-19 07:17 | 43.59992 | 142.24789 | 14445 ft | 274 kts | 246° |
| 2026-04-19 07:18 | 43.59190 | 142.22371 | 15154 ft | 276 kts | 246° |
| 2026-04-19 07:18 | 43.58400 | 142.19991 | 15840 ft | 277 kts | 246° |
| 2026-04-19 07:18 | 43.57598 | 142.17574 | 16517 ft | 279 kts | 246° |
| 2026-04-19 07:18 | 43.56784 | 142.15126 | 17176 ft | 281 kts | 246° |
| 2026-04-19 07:19 | 43.55970 | 142.12677 | 17818 ft | 283 kts | 246° |
| 2026-04-19 07:19 | 43.55215 | 142.10411 | 18391 ft | 284 kts | 246° |
| 2026-04-19 07:19 | 43.54346 | 142.07802 | 19030 ft | 286 kts | 246° |
| 2026-04-19 07:19 | 43.53517 | 142.05315 | 19634 ft | 288 kts | 246° |
| 2026-04-19 07:20 | 43.52321 | 142.03110 | 20184 ft | 296 kts | 220° |
| 2026-04-19 07:20 | 43.50392 | 142.02078 | 20721 ft | 309 kts | 192° |
| 2026-04-19 07:20 | 43.48249 | 142.01708 | 21257 ft | 312 kts | 192° |
| 2026-04-19 07:20 | 43.46102 | 142.01334 | 21789 ft | 314 kts | 192° |
| 2026-04-19 07:21 | 43.43948 | 142.00963 | 22294 ft | 317 kts | 192° |
| 2026-04-19 07:21 | 43.41774 | 142.00594 | 22788 ft | 319 kts | 193° |
| 2026-04-19 07:21 | 43.39550 | 142.00214 | 23276 ft | 322 kts | 192° |
| 2026-04-19 07:21 | 43.37343 | 141.99841 | 23788 ft | 323 kts | 192° |
| 2026-04-19 07:22 | 43.35110 | 141.99466 | 24241 ft | 325 kts | 193° |
| 2026-04-19 07:22 | 43.32885 | 141.99091 | 24685 ft | 327 kts | 193° |
| 2026-04-19 07:22 | 43.30602 | 141.98708 | 25139 ft | 329 kts | 193° |
| 2026-04-19 07:22 | 43.28336 | 141.98328 | 25574 ft | 331 kts | 193° |
| 2026-04-19 07:23 | 43.26093 | 141.97951 | 25979 ft | 334 kts | 193° |
| 2026-04-19 07:23 | 43.23808 | 141.97568 | 26377 ft | 336 kts | 193° |
| 2026-04-19 07:23 | 43.21486 | 141.97182 | 26796 ft | 337 kts | 193° |
| 2026-04-19 07:23 | 43.19136 | 141.96788 | 27169 ft | 340 kts | 193° |
| 2026-04-19 07:24 | 43.16813 | 141.96400 | 27615 ft | 340 kts | 193° |
| 2026-04-19 07:24 | 43.14434 | 141.96004 | 27974 ft | 343 kts | 193° |
| 2026-04-19 07:24 | 43.12090 | 141.95615 | 28391 ft | 343 kts | 193° |
| 2026-04-19 07:24 | 43.09706 | 141.95216 | 28536 ft | 352 kts | 193° |
| 2026-04-19 07:25 | 43.07242 | 141.94804 | 28700 ft | 359 kts | 193° |
| 2026-04-19 07:25 | 43.04775 | 141.94395 | 29108 ft | 358 kts | 193° |
| 2026-04-19 07:25 | 43.02317 | 141.93994 | 29575 ft | 356 kts | 194° |
| 2026-04-19 07:25 | 42.99897 | 141.93600 | 30027 ft | 354 kts | 195° |
| 2026-04-19 07:26 | 42.97493 | 141.93207 | 30426 ft | 353 kts | 195° |
| 2026-04-19 07:26 | 42.95099 | 141.92816 | 30877 ft | 350 kts | 197° |
| 2026-04-19 07:26 | 42.92685 | 141.92419 | 31207 ft | 351 kts | 198° |
| 2026-04-19 07:26 | 42.90263 | 141.92021 | 31590 ft | 350 kts | 198° |
| 2026-04-19 07:27 | 42.87877 | 141.91628 | 32031 ft | 347 kts | 199° |
| 2026-04-19 07:27 | 42.85473 | 141.91226 | 32379 ft | 347 kts | 199° |
| 2026-04-19 07:27 | 42.83092 | 141.90828 | 32825 ft | 343 kts | 200° |
| 2026-04-19 07:27 | 42.80746 | 141.90437 | 33144 ft | 343 kts | 200° |
| 2026-04-19 07:28 | 42.78386 | 141.90048 | 33518 ft | 341 kts | 200° |
| 2026-04-19 07:28 | 42.76055 | 141.89661 | 33841 ft | 340 kts | 200° |
| 2026-04-19 07:28 | 42.73758 | 141.89282 | 34087 ft | 341 kts | 200° |
| 2026-04-19 07:28 | 42.71443 | 141.88899 | 34487 ft | 338 kts | 200° |
| 2026-04-19 07:29 | 42.69135 | 141.88521 | 34752 ft | 338 kts | 200° |
| 2026-04-19 07:29 | 42.66813 | 141.88138 | 35031 ft | 338 kts | 200° |
| 2026-04-19 07:29 | 42.64483 | 141.87756 | 35262 ft | 339 kts | 200° |
| 2026-04-19 07:29 | 42.62133 | 141.87369 | 35589 ft | 337 kts | 200° |
| 2026-04-19 07:30 | 42.59812 | 141.86990 | 35809 ft | 338 kts | 200° |
| 2026-04-19 07:30 | 42.57507 | 141.86614 | 36172 ft | 334 kts | 200° |
| 2026-04-19 07:30 | 42.55203 | 141.86237 | 36315 ft | 338 kts | 200° |
| 2026-04-19 07:30 | 42.52859 | 141.85854 | 36553 ft | 337 kts | 200° |
| 2026-04-19 07:31 | 42.50552 | 141.85477 | 36856 ft | 335 kts | 200° |
| 2026-04-19 07:31 | 42.48246 | 141.85101 | 37076 ft | 335 kts | 200° |
| 2026-04-19 07:31 | 42.45950 | 141.84727 | 37284 ft | 335 kts | 200° |
| 2026-04-19 07:31 | 42.43641 | 141.84351 | 37390 ft | 338 kts | 200° |
| 2026-04-19 07:32 | 42.41357 | 141.83978 | 37662 ft | 336 kts | 200° |
| 2026-04-19 07:32 | 42.39055 | 141.83606 | 37852 ft | 336 kts | 200° |
| 2026-04-19 07:32 | 42.36731 | 141.83226 | 37994 ft | 338 kts | 200° |
| 2026-04-19 07:33 | 42.32065 | 141.82465 | 38021 ft | 349 kts | 200° |
| 2026-04-19 07:33 | 42.27198 | 141.81676 | 38014 ft | 361 kts | 200° |
| 2026-04-19 07:34 | 42.22265 | 141.80875 | 38023 ft | 372 kts | 199° |
| 2026-04-19 07:34 | 42.16985 | 141.80025 | 38015 ft | 383 kts | 199° |
| 2026-04-19 07:35 | 42.11654 | 141.79167 | 38018 ft | 393 kts | 199° |
| 2026-04-19 07:35 | 42.06162 | 141.78282 | 38019 ft | 403 kts | 198° |
| 2026-04-19 07:36 | 42.00605 | 141.77391 | 38020 ft | 412 kts | 198° |
| 2026-04-19 07:36 | 41.94910 | 141.76482 | 38015 ft | 413 kts | 198° |
| 2026-04-19 07:37 | 41.89115 | 141.76277 | 38020 ft | 427 kts | 188° |
| 2026-04-19 07:37 | 41.83194 | 141.76813 | 38016 ft | 428 kts | 188° |
| 2026-04-19 07:38 | 41.77235 | 141.77364 | 38017 ft | 428 kts | 188° |
| 2026-04-19 07:38 | 41.71262 | 141.77916 | 38015 ft | 427 kts | 187° |
| 2026-04-19 07:39 | 41.65348 | 141.78467 | 38013 ft | 426 kts | 187° |
| 2026-04-19 07:39 | 41.59425 | 141.79013 | 38016 ft | 427 kts | 187° |
| 2026-04-19 07:40 | 41.53507 | 141.79558 | 38018 ft | 428 kts | 187° |
| 2026-04-19 07:40 | 41.50534 | 141.79732 | 37998 ft | 416 kts | 195° |
| 2026-04-19 07:40 | 41.47825 | 141.78998 | 38019 ft | 401 kts | 204° |
| 2026-04-19 07:41 | 41.42365 | 141.77243 | 38016 ft | 403 kts | 205° |
| 2026-04-19 07:41 | 41.36904 | 141.75478 | 38014 ft | 404 kts | 205° |
| 2026-04-19 07:42 | 41.31475 | 141.73717 | 38017 ft | 403 kts | 205° |
| 2026-04-19 07:42 | 41.26036 | 141.71951 | 38014 ft | 403 kts | 205° |
| 2026-04-19 07:43 | 41.20614 | 141.70197 | 38013 ft | 403 kts | 205° |
| 2026-04-19 07:43 | 41.15175 | 141.68437 | 38016 ft | 403 kts | 205° |
| 2026-04-19 07:44 | 41.09736 | 141.66684 | 38014 ft | 402 kts | 205° |
| 2026-04-19 07:44 | 41.04321 | 141.64951 | 38016 ft | 401 kts | 206° |
| 2026-04-19 07:45 | 40.98957 | 141.63228 | 38012 ft | 400 kts | 207° |
| 2026-04-19 07:45 | 40.93631 | 141.61514 | 38012 ft | 399 kts | 208° |
| 2026-04-19 07:46 | 40.88280 | 141.59792 | 38010 ft | 398 kts | 208° |
| 2026-04-19 07:46 | 40.82942 | 141.58081 | 38010 ft | 399 kts | 208° |
| 2026-04-19 07:47 | 40.77538 | 141.56352 | 38010 ft | 400 kts | 208° |
| 2026-04-19 07:47 | 40.72612 | 141.54779 | 38010 ft | 400 kts | 207° |
| 2026-04-19 07:48 | 40.66881 | 141.52954 | 38010 ft | 401 kts | 208° |
| 2026-04-19 07:48 | 40.61505 | 141.51245 | 38009 ft | 401 kts | 207° |
| 2026-04-19 07:49 | 40.56099 | 141.49528 | 38008 ft | 401 kts | 207° |
| 2026-04-19 07:49 | 40.50783 | 141.47844 | 38008 ft | 400 kts | 207° |
| 2026-04-19 07:50 | 40.45403 | 141.46140 | 37762 ft | 404 kts | 207° |
| 2026-04-19 07:50 | 40.39979 | 141.44428 | 37732 ft | 405 kts | 207° |
| 2026-04-19 07:51 | 40.34651 | 141.42773 | 38571 ft | 382 kts | 208° |
| 2026-04-19 07:51 | 40.32015 | 141.41928 | 38326 ft | 393 kts | 208° |
| 2026-04-19 07:51 | 40.29357 | 141.41081 | 38059 ft | 402 kts | 207° |
| 2026-04-19 07:51 | 40.26629 | 141.40221 | 37785 ft | 404 kts | 207° |
| 2026-04-19 07:52 | 40.23938 | 141.39377 | 37491 ft | 404 kts | 207° |
| 2026-04-19 07:52 | 40.21258 | 141.38536 | 37200 ft | 403 kts | 207° |
| 2026-04-19 07:52 | 40.18567 | 141.37692 | 36907 ft | 403 kts | 207° |
| 2026-04-19 07:52 | 40.15855 | 141.36842 | 36611 ft | 403 kts | 207° |
| 2026-04-19 07:53 | 40.13184 | 141.36006 | 36320 ft | 403 kts | 207° |
| 2026-04-19 07:53 | 40.10429 | 141.35144 | 36020 ft | 403 kts | 207° |
| 2026-04-19 07:53 | 40.07716 | 141.34296 | 35753 ft | 404 kts | 207° |
| 2026-04-19 07:53 | 40.05012 | 141.33450 | 35494 ft | 404 kts | 207° |
| 2026-04-19 07:54 | 40.02301 | 141.32605 | 35233 ft | 404 kts | 207° |
| 2026-04-19 07:54 | 39.99588 | 141.31741 | 34971 ft | 404 kts | 208° |
| 2026-04-19 07:54 | 39.96858 | 141.30841 | 34708 ft | 404 kts | 207° |
| 2026-04-19 07:54 | 39.94147 | 141.29950 | 34447 ft | 405 kts | 207° |
| 2026-04-19 07:55 | 39.91423 | 141.29054 | 34184 ft | 405 kts | 207° |
| 2026-04-19 07:55 | 39.88726 | 141.28169 | 33923 ft | 406 kts | 207° |
| 2026-04-19 07:55 | 39.85997 | 141.27271 | 33658 ft | 407 kts | 207° |
| 2026-04-19 07:55 | 39.83258 | 141.26369 | 33393 ft | 407 kts | 207° |
| 2026-04-19 07:56 | 39.80580 | 141.25490 | 33134 ft | 408 kts | 207° |
| 2026-04-19 07:56 | 39.77816 | 141.24583 | 32866 ft | 408 kts | 207° |
| 2026-04-19 07:56 | 39.75095 | 141.23692 | 32603 ft | 409 kts | 207° |
| 2026-04-19 07:56 | 39.72354 | 141.22795 | 32338 ft | 410 kts | 206° |
| 2026-04-19 07:57 | 39.69574 | 141.21887 | 32069 ft | 411 kts | 206° |
| 2026-04-19 07:57 | 39.66823 | 141.20987 | 31804 ft | 411 kts | 206° |
| 2026-04-19 07:57 | 39.64064 | 141.20087 | 31537 ft | 412 kts | 206° |
| 2026-04-19 07:57 | 39.61282 | 141.19180 | 31268 ft | 413 kts | 206° |
| 2026-04-19 07:58 | 39.58508 | 141.18275 | 31000 ft | 413 kts | 206° |
| 2026-04-19 07:58 | 39.55726 | 141.17371 | 30731 ft | 414 kts | 205° |
| 2026-04-19 07:58 | 39.53001 | 141.16484 | 30468 ft | 414 kts | 205° |
| 2026-04-19 07:58 | 39.50211 | 141.15578 | 30198 ft | 415 kts | 205° |
| 2026-04-19 07:59 | 39.47426 | 141.14673 | 29929 ft | 415 kts | 205° |
| 2026-04-19 07:59 | 39.44664 | 141.13777 | 29661 ft | 414 kts | 205° |
| 2026-04-19 07:59 | 39.41795 | 141.13110 | 29385 ft | 424 kts | 198° |
| 2026-04-19 07:59 | 39.38902 | 141.12616 | 29114 ft | 423 kts | 198° |
| 2026-04-19 08:00 | 39.36010 | 141.12131 | 28845 ft | 423 kts | 198° |
| 2026-04-19 08:00 | 39.33094 | 141.11644 | 28572 ft | 422 kts | 198° |
| 2026-04-19 08:00 | 39.30176 | 141.11157 | 28299 ft | 421 kts | 198° |
| 2026-04-19 08:00 | 39.27273 | 141.10675 | 28026 ft | 420 kts | 198° |
| 2026-04-19 08:01 | 39.24382 | 141.10193 | 27756 ft | 425 kts | 197° |
| 2026-04-19 08:01 | 39.21477 | 141.09711 | 27487 ft | 427 kts | 197° |
| 2026-04-19 08:01 | 39.18501 | 141.09218 | 27213 ft | 427 kts | 197° |
| 2026-04-19 08:01 | 39.15632 | 141.08746 | 26942 ft | 420 kts | 197° |
| 2026-04-19 08:02 | 39.13025 | 141.08316 | 26693 ft | 417 kts | 197° |
| 2026-04-19 08:02 | 39.09972 | 141.07812 | 26399 ft | 413 kts | 197° |
| 2026-04-19 08:02 | 39.07133 | 141.07344 | 26124 ft | 410 kts | 197° |
| 2026-04-19 08:02 | 39.04452 | 141.06900 | 25862 ft | 407 kts | 197° |
| 2026-04-19 08:03 | 39.01622 | 141.06432 | 25583 ft | 405 kts | 197° |
| 2026-04-19 08:03 | 38.98837 | 141.05971 | 25306 ft | 402 kts | 196° |
| 2026-04-19 08:03 | 38.96287 | 141.05550 | 25051 ft | 400 kts | 196° |
| 2026-04-19 08:03 | 38.93393 | 141.05072 | 24761 ft | 399 kts | 195° |
| 2026-04-19 08:04 | 38.90660 | 141.04622 | 24487 ft | 399 kts | 195° |
| 2026-04-19 08:04 | 38.87893 | 141.04167 | 24211 ft | 400 kts | 195° |
| 2026-04-19 08:04 | 38.85161 | 141.03722 | 23939 ft | 400 kts | 195° |
| 2026-04-19 08:04 | 38.82407 | 141.03271 | 23665 ft | 399 kts | 194° |
| 2026-04-19 08:05 | 38.79787 | 141.02844 | 23404 ft | 399 kts | 194° |
| 2026-04-19 08:05 | 38.77003 | 141.02390 | 23125 ft | 398 kts | 194° |
| 2026-04-19 08:05 | 38.74294 | 141.01947 | 22853 ft | 397 kts | 194° |
| 2026-04-19 08:05 | 38.71547 | 141.01498 | 22577 ft | 396 kts | 194° |
| 2026-04-19 08:06 | 38.68832 | 141.01054 | 22303 ft | 395 kts | 194° |
| 2026-04-19 08:06 | 38.66126 | 141.00613 | 22028 ft | 394 kts | 194° |
| 2026-04-19 08:06 | 38.63405 | 141.00169 | 21751 ft | 392 kts | 194° |
| 2026-04-19 08:06 | 38.60733 | 140.99734 | 21478 ft | 391 kts | 194° |
| 2026-04-19 08:07 | 38.58043 | 140.99297 | 21203 ft | 390 kts | 194° |
| 2026-04-19 08:07 | 38.55356 | 140.98859 | 20926 ft | 388 kts | 194° |
| 2026-04-19 08:07 | 38.52699 | 140.98427 | 20652 ft | 387 kts | 194° |
| 2026-04-19 08:07 | 38.50035 | 140.97995 | 20376 ft | 386 kts | 194° |
| 2026-04-19 08:08 | 38.47449 | 140.97574 | 20107 ft | 384 kts | 194° |
| 2026-04-19 08:08 | 38.44822 | 140.97148 | 19832 ft | 383 kts | 194° |
| 2026-04-19 08:08 | 38.42197 | 140.96722 | 19557 ft | 382 kts | 194° |
| 2026-04-19 08:08 | 38.39726 | 140.96323 | 19297 ft | 380 kts | 193° |
| 2026-04-19 08:09 | 38.37094 | 140.95897 | 19019 ft | 379 kts | 193° |
| 2026-04-19 08:09 | 38.34498 | 140.95476 | 18744 ft | 378 kts | 193° |
| 2026-04-19 08:09 | 38.31907 | 140.95058 | 18468 ft | 376 kts | 193° |
| 2026-04-19 08:09 | 38.29302 | 140.94636 | 18190 ft | 375 kts | 193° |
| 2026-04-19 08:10 | 38.26729 | 140.94222 | 17914 ft | 374 kts | 193° |
| 2026-04-19 08:10 | 38.24223 | 140.93817 | 17645 ft | 372 kts | 193° |
| 2026-04-19 08:10 | 38.21660 | 140.93404 | 17368 ft | 371 kts | 193° |
| 2026-04-19 08:10 | 38.19092 | 140.92990 | 17090 ft | 370 kts | 193° |
| 2026-04-19 08:11 | 38.16587 | 140.92587 | 16818 ft | 368 kts | 193° |
| 2026-04-19 08:11 | 38.14086 | 140.92136 | 16532 ft | 363 kts | 198° |
| 2026-04-19 08:11 | 38.11756 | 140.90996 | 16250 ft | 356 kts | 207° |
| 2026-04-19 08:11 | 38.09483 | 140.89790 | 15974 ft | 355 kts | 208° |
| 2026-04-19 08:12 | 38.07218 | 140.88580 | 15698 ft | 354 kts | 208° |
| 2026-04-19 08:12 | 38.04961 | 140.87373 | 15422 ft | 353 kts | 208° |
| 2026-04-19 08:12 | 38.02718 | 140.86174 | 15147 ft | 352 kts | 208° |
| 2026-04-19 08:12 | 38.00467 | 140.84970 | 14885 ft | 350 kts | 208° |
| 2026-04-19 08:13 | 37.98215 | 140.83766 | 14631 ft | 349 kts | 208° |
| 2026-04-19 08:13 | 37.95977 | 140.82571 | 14379 ft | 347 kts | 208° |
| 2026-04-19 08:13 | 37.93774 | 140.81395 | 14129 ft | 346 kts | 208° |
| 2026-04-19 08:13 | 37.91603 | 140.80237 | 13881 ft | 344 kts | 208° |
| 2026-04-19 08:14 | 37.89397 | 140.79060 | 13629 ft | 343 kts | 207° |
| 2026-04-19 08:14 | 37.85172 | 140.76814 | 13145 ft | 317 kts | 208° |
| 2026-04-19 08:14 | 37.83170 | 140.75749 | 12910 ft | 306 kts | 208° |
| 2026-04-19 08:15 | 37.81237 | 140.74721 | 12676 ft | 296 kts | 208° |
| 2026-04-19 08:15 | 37.79628 | 140.73865 | 12479 ft | 293 kts | 208° |
| 2026-04-19 08:15 | 37.77547 | 140.72757 | 12224 ft | 291 kts | 208° |
| 2026-04-19 08:15 | 37.75757 | 140.71806 | 12004 ft | 289 kts | 207° |
| 2026-04-19 08:16 | 37.73902 | 140.70821 | 11775 ft | 288 kts | 207° |
| 2026-04-19 08:16 | 37.72068 | 140.69847 | 11547 ft | 286 kts | 207° |
| 2026-04-19 08:16 | 37.70266 | 140.68890 | 11323 ft | 285 kts | 207° |
| 2026-04-19 08:16 | 37.68430 | 140.67918 | 11087 ft | 284 kts | 207° |
| 2026-04-19 08:17 | 37.66623 | 140.66965 | 10860 ft | 284 kts | 208° |
| 2026-04-19 08:17 | 37.64794 | 140.65994 | 10630 ft | 284 kts | 207° |
| 2026-04-19 08:17 | 37.63013 | 140.65054 | 10214 ft | 264 kts | 208° |
| 2026-04-19 08:17 | 37.61497 | 140.63940 | 9766 ft | 262 kts | 217° |
| 2026-04-19 08:18 | 37.59930 | 140.62665 | 9313 ft | 268 kts | 218° |
| 2026-04-19 08:18 | 37.58375 | 140.61374 | 8864 ft | 272 kts | 218° |
| 2026-04-19 08:18 | 37.56817 | 140.60066 | 8420 ft | 275 kts | 218° |
| 2026-04-19 08:18 | 37.55228 | 140.58728 | 7971 ft | 278 kts | 218° |
| 2026-04-19 08:19 | 37.53595 | 140.57349 | 7513 ft | 280 kts | 218° |
| 2026-04-19 08:19 | 37.52029 | 140.56029 | 7023 ft | 263 kts | 218° |
| 2026-04-19 08:19 | 37.50520 | 140.54753 | 6555 ft | 263 kts | 217° |
| 2026-04-19 08:19 | 37.49002 | 140.53470 | 6078 ft | 264 kts | 217° |
| 2026-04-19 08:20 | 37.47472 | 140.52177 | 5601 ft | 264 kts | 217° |
| 2026-04-19 08:20 | 37.45952 | 140.50894 | 5175 ft | 262 kts | 217° |
| 2026-04-19 08:20 | 37.44445 | 140.49623 | 4748 ft | 261 kts | 217° |
| 2026-04-19 08:20 | 37.42938 | 140.48352 | 4320 ft | 260 kts | 216° |
| 2026-04-19 08:21 | 37.41464 | 140.47111 | 3872 ft | 242 kts | 216° |
| 2026-04-19 08:21 | 37.40119 | 140.45981 | 3635 ft | 226 kts | 216° |
| 2026-04-19 08:21 | 37.38835 | 140.44900 | 3596 ft | 221 kts | 217° |
| 2026-04-19 08:21 | 37.37723 | 140.43967 | 3591 ft | 216 kts | 215° |
| 2026-04-19 08:22 | 37.36148 | 140.43491 | 3577 ft | 219 kts | 184° |
| 2026-04-19 08:22 | 37.34564 | 140.43390 | 3292 ft | 234 kts | 184° |
| 2026-04-19 08:22 | 37.32898 | 140.43297 | 2987 ft | 248 kts | 184° |
| 2026-04-19 08:22 | 37.31142 | 140.43207 | 2656 ft | 260 kts | 183° |
| 2026-04-19 08:23 | 37.29498 | 140.43124 | 2316 ft | 209 kts | 183° |
| 2026-04-19 08:23 | 37.28177 | 140.43059 | 2051 ft | 174 kts | 183° |
| 2026-04-19 08:23 | 37.27031 | 140.42995 | 1849 ft | 156 kts | 181° |
| 2026-04-19 08:23 | 37.25977 | 140.42955 | 1649 ft | 147 kts | 181° |
| 2026-04-19 08:24 | 37.24983 | 140.42897 | 1515 ft | 143 kts | 180° |
| 2026-04-19 08:24 | 37.24020 | 140.42854 | 1294 ft | 136 kts | 180° |
| 2026-04-19 08:24 | 37.23123 | 140.42815 | 1217 ft | 122 kts | 181° |
| 2026-04-19 08:24 | 37.22499 | 140.42784 | 1216 ft | 44 kts | 182° |
| 2026-04-19 08:25 | 37.22212 | 140.42772 | 1208 ft | 40 kts | 182° |
| 2026-04-19 08:25 | 37.22076 | 140.42796 | 1206 ft | 13 kts | 124° |
| 2026-04-19 08:25 | 37.22065 | 140.42841 | 1206 ft | 0 kts | 96° |
| 2026-04-19 08:28 | 37.22063 | 140.42889 | 1207 ft | 11 kts | 92° |
| 2026-04-19 08:29 | 37.22104 | 140.42973 | 1209 ft | 12 kts | 9° |
| 2026-04-19 08:29 | 37.22214 | 140.42979 | 1212 ft | 20 kts | 2° |
| 2026-04-19 08:29 | 37.22383 | 140.42989 | 1215 ft | 18 kts | 2° |
| 2026-04-19 08:29 | 37.22476 | 140.42992 | 1217 ft | 0 kts | 7° |
| 2026-04-19 08:30 | 37.22477 | 140.42992 | 1217 ft | 1 kts | 7° |
| 2026-04-19 08:30 | 37.22517 | 140.43022 | 1217 ft | 11 kts | 53° |
| 2026-04-19 08:30 | 37.22533 | 140.43112 | 1217 ft | 9 kts | 65° |
| 2026-04-19 08:31 | 37.22541 | 140.43193 | 1217 ft | 10 kts | 93° |
| 2026-04-19 08:31 | 37.22540 | 140.43231 | 1217 ft | 1 kts | 92° |
| 2026-04-19 08:31 | 37.22539 | 140.43262 | 1217 ft | 0 kts | 93° |